Time;durP1;ratioP1;P1;durP2;ratioP2;P2;SDS_P1;SDS_P2;PMS_P1;PMS_P2;Temp;Humidity;BMP_temperature;BMP_pressure;BME280_temperature;BME280_humidity;BME280_pressure;Samples;Min_cycle;Max_cycle;Signal;HPM_P1;HPM_P2
2021/09/05 00:01:28;;;;;;;22.95;12.20;;;12.80;99.90;;;;;;5095723;28;20059;-70
2021/09/05 00:04:00;;;;;;;21.80;12.98;;;12.80;99.90;;;;;;5100806;28;20099;-71
2021/09/05 00:06:26;;;;;;;22.08;13.23;;;12.80;99.90;;;;;;5095491;28;20040;-71
2021/09/05 00:08:52;;;;;;;18.52;13.57;;;12.80;99.90;;;;;;5099718;28;20629;-70
2021/09/05 00:11:17;;;;;;;25.52;12.02;;;12.80;99.90;;;;;;5096413;28;20043;-71
2021/09/05 00:13:43;;;;;;;23.05;12.75;;;12.80;99.90;;;;;;5099216;28;20036;-71
2021/09/05 00:16:08;;;;;;;21.23;13.05;;;12.80;99.90;;;;;;5096047;28;20036;-71
2021/09/05 00:18:34;;;;;;;18.05;12.45;;;12.70;99.90;;;;;;5099619;28;20072;-71
2021/09/05 00:20:59;;;;;;;20.85;12.05;;;12.70;99.90;;;;;;5095868;28;20119;-71
2021/09/05 00:23:25;;;;;;;18.55;12.70;;;12.70;99.90;;;;;;5098194;27;20046;-71
2021/09/05 00:25:51;;;;;;;17.77;12.85;;;12.80;99.90;;;;;;5096238;27;20047;-71
2021/09/05 00:28:16;;;;;;;19.10;12.63;;;12.70;99.90;;;;;;5125642;27;20076;-71
2021/09/05 00:30:42;;;;;;;23.50;13.30;;;12.70;99.90;;;;;;5099093;28;20074;-71
2021/09/05 00:33:07;;;;;;;21.23;12.93;;;12.70;99.90;;;;;;5105431;27;20035;-71
2021/09/05 00:35:36;;;;;;;20.40;13.35;;;12.70;99.90;;;;;;5093103;28;20059;-71
2021/09/05 00:38:02;;;;;;;20.58;12.98;;;12.70;99.90;;;;;;5094133;28;20047;-70
2021/09/05 00:40:28;;;;;;;19.90;13.52;;;12.60;99.90;;;;;;5094484;28;20047;-71
2021/09/05 00:42:53;;;;;;;20.50;12.93;;;12.70;99.90;;;;;;5096454;28;20974;-71
2021/09/05 00:45:19;;;;;;;17.85;12.38;;;12.60;99.90;;;;;;5094856;28;20443;-71
2021/09/05 00:47:44;;;;;;;18.77;12.80;;;12.60;99.90;;;;;;5094970;28;20389;-71
2021/09/05 00:50:14;;;;;;;16.98;13.20;;;12.60;99.90;;;;;;5094279;28;20043;-71
2021/09/05 00:52:40;;;;;;;19.90;12.60;;;12.60;99.90;;;;;;5096645;28;20779;-71
2021/09/05 00:55:06;;;;;;;21.70;13.55;;;12.60;99.90;;;;;;5098896;28;20042;-71
2021/09/05 00:57:32;;;;;;;26.10;13.88;;;12.60;99.90;;;;;;5094505;28;20047;-71
2021/09/05 00:59:59;;;;;;;24.60;13.77;;;12.60;99.90;;;;;;5094371;27;20512;-71
2021/09/05 01:02:24;;;;;;;21.58;13.35;;;12.50;99.90;;;;;;5095941;28;20028;-71
2021/09/05 01:04:50;;;;;;;17.90;12.20;;;12.50;99.90;;;;;;5094530;28;20032;-71
2021/09/05 01:07:15;;;;;;;20.58;13.98;;;12.50;99.90;;;;;;5096727;28;20488;-71
2021/09/05 01:09:41;;;;;;;17.33;12.38;;;12.50;99.90;;;;;;5125577;27;20044;-71
2021/09/05 01:12:07;;;;;;;21.70;12.82;;;12.50;99.90;;;;;;5094081;28;20043;-71
2021/09/05 01:14:33;;;;;;;19.88;13.13;;;12.50;99.90;;;;;;5092972;28;20040;-71
2021/09/05 01:16:58;;;;;;;24.92;14.65;;;12.50;99.90;;;;;;5093896;28;20490;-72
2021/09/05 01:19:24;;;;;;;25.48;14.88;;;12.40;99.90;;;;;;5098049;28;20055;-71
2021/09/05 01:21:51;;;;;;;27.05;16.48;;;12.40;99.90;;;;;;5095017;28;20040;-71
2021/09/05 01:24:19;;;;;;;21.77;14.55;;;12.50;99.90;;;;;;5097883;28;20520;-71
2021/09/05 01:26:47;;;;;;;19.42;13.45;;;12.30;99.90;;;;;;5095276;28;20046;-71
2021/09/05 01:29:13;;;;;;;19.73;13.60;;;12.40;99.90;;;;;;5126422;27;20035;-71
2021/09/05 01:31:44;;;;;;;22.65;15.32;;;12.40;99.90;;;;;;5096597;28;20035;-71
2021/09/05 01:34:12;;;;;;;20.52;14.43;;;12.40;99.90;;;;;;5095009;27;20413;-71
2021/09/05 01:36:39;;;;;;;21.13;14.07;;;12.30;99.90;;;;;;5092965;28;20043;-71
2021/09/05 01:39:06;;;;;;;21.02;14.98;;;12.30;99.90;;;;;;5094328;28;20396;-71
2021/09/05 01:41:32;;;;;;;20.88;15.27;;;12.30;99.90;;;;;;5093750;28;20047;-71
2021/09/05 01:43:59;;;;;;;18.83;14.40;;;12.20;99.90;;;;;;5096033;28;20050;-71
2021/09/05 01:46:25;;;;;;;28.05;16.73;;;12.20;99.90;;;;;;5093104;28;20040;-71
2021/09/05 01:48:52;;;;;;;22.40;15.15;;;12.30;99.90;;;;;;5094930;28;20442;-71
2021/09/05 01:51:17;;;;;;;19.05;13.65;;;12.20;99.90;;;;;;5095495;28;20058;-71
2021/09/05 01:53:43;;;;;;;40.83;19.25;;;12.20;99.90;;;;;;5098642;28;20040;-71
2021/09/05 01:56:09;;;;;;;22.92;15.90;;;12.10;99.90;;;;;;5079299;28;20043;-71
2021/09/05 01:58:34;;;;;;;29.02;17.88;;;12.10;99.90;;;;;;5096615;28;20091;-71
2021/09/05 02:01:00;;;;;;;26.17;17.52;;;12.10;99.90;;;;;;5096750;28;20424;-71
2021/09/05 02:03:25;;;;;;;55.50;18.85;;;12.10;99.90;;;;;;5097660;28;20833;-71
2021/09/05 02:05:51;;;;;;;36.90;19.35;;;12.10;99.90;;;;;;5094574;28;20444;-71
2021/09/05 02:08:17;;;;;;;24.17;16.10;;;12.10;99.90;;;;;;5111802;27;20126;-71
2021/09/05 02:10:42;;;;;;;22.33;15.38;;;12.10;99.90;;;;;;5124731;27;20042;-71
2021/09/05 02:13:08;;;;;;;107.78;22.00;;;12.10;99.90;;;;;;5095195;28;20094;-71
2021/09/05 02:15:34;;;;;;;117.20;24.95;;;12.10;99.90;;;;;;5077795;28;20043;-71
2021/09/05 02:17:59;;;;;;;108.03;21.55;;;12.00;99.90;;;;;;5098405;28;20668;-71
2021/09/05 02:20:25;;;;;;;140.27;22.90;;;12.00;99.90;;;;;;5094715;28;20044;-71
2021/09/05 02:22:51;;;;;;;136.02;21.80;;;12.00;99.90;;;;;;5096209;28;20035;-71
2021/09/05 02:25:16;;;;;;;70.72;19.52;;;11.90;99.90;;;;;;5128134;27;20123;-71
2021/09/05 02:27:43;;;;;;;205.20;26.05;;;12.00;99.90;;;;;;5092556;28;20140;-71
2021/09/05 02:30:10;;;;;;;68.75;18.58;;;11.90;99.90;;;;;;5096661;28;20039;-71
2021/09/05 02:32:36;;;;;;;199.23;23.05;;;11.90;99.90;;;;;;5101653;28;20047;-71
2021/09/05 02:35:03;;;;;;;133.10;19.42;;;11.90;99.90;;;;;;5102294;28;20031;-71
2021/09/05 02:37:29;;;;;;;139.20;20.45;;;11.90;99.90;;;;;;5097311;28;20050;-71
2021/09/05 02:39:55;;;;;;;77.57;17.42;;;11.90;99.90;;;;;;5103130;28;20040;-71
2021/09/05 02:42:20;;;;;;;95.63;20.05;;;11.80;99.90;;;;;;5102459;28;20485;-71
2021/09/05 02:44:46;;;;;;;26.02;15.13;;;11.80;99.90;;;;;;5102300;28;20035;-70
2021/09/05 02:47:11;;;;;;;42.08;16.05;;;11.80;99.90;;;;;;5126520;27;20465;-71
2021/09/05 02:49:37;;;;;;;47.65;16.25;;;11.80;99.90;;;;;;5100863;28;20067;-71
2021/09/05 02:52:05;;;;;;;32.00;15.93;;;11.70;99.90;;;;;;5103500;28;20040;-71
2021/09/05 02:54:31;;;;;;;18.40;13.10;;;11.80;99.90;;;;;;5100421;28;20047;-71
2021/09/05 02:56:56;;;;;;;22.75;14.50;;;11.70;99.90;;;;;;5102427;28;20048;-71
2021/09/05 02:59:22;;;;;;;21.98;13.60;;;11.80;99.90;;;;;;5127009;27;20043;-71
2021/09/05 03:01:48;;;;;;;19.52;14.90;;;11.80;99.90;;;;;;5098495;28;20036;-71
2021/09/05 03:04:13;;;;;;;16.42;13.70;;;11.80;99.90;;;;;;5098118;28;20509;-71
2021/09/05 03:06:39;;;;;;;21.98;15.73;;;11.70;99.90;;;;;;5099861;28;20044;-71
2021/09/05 03:09:04;;;;;;;18.77;15.18;;;11.80;99.90;;;;;;5131575;27;20084;-71
2021/09/05 03:11:30;;;;;;;18.40;14.52;;;11.80;99.90;;;;;;5105304;28;20039;-71
2021/09/05 03:13:56;;;;;;;16.95;13.15;;;11.70;99.90;;;;;;5099495;28;20452;-71
2021/09/05 03:16:22;;;;;;;18.95;11.68;;;11.70;99.90;;;;;;5107788;27;20038;-71
2021/09/05 03:18:47;;;;;;;14.07;10.27;;;11.70;99.90;;;;;;5103746;27;20036;-71
2021/09/05 03:21:13;;;;;;;19.15;12.60;;;11.60;99.90;;;;;;5128531;27;20043;-71
2021/09/05 03:23:38;;;;;;;17.13;13.75;;;11.60;99.90;;;;;;5108831;27;20035;-71
2021/09/05 03:26:04;;;;;;;14.32;11.48;;;11.50;99.90;;;;;;5101800;28;20078;-71
2021/09/05 03:28:30;;;;;;;13.02;11.30;;;11.30;99.90;;;;;;5137663;27;20043;-71
2021/09/05 03:30:55;;;;;;;10.80;9.65;;;11.20;99.90;;;;;;5130304;27;20039;-71
2021/09/05 03:33:21;;;;;;;12.13;8.48;;;11.10;99.90;;;;;;5099337;28;20394;-71
2021/09/05 03:35:46;;;;;;;9.70;8.75;;;10.90;99.90;;;;;;5099431;28;20063;-71
2021/09/05 03:38:12;;;;;;;11.15;9.00;;;10.90;99.90;;;;;;5096975;28;20052;-71
2021/09/05 03:40:37;;;;;;;10.45;9.13;;;10.80;99.90;;;;;;5095056;27;20123;-71
2021/09/05 03:43:03;;;;;;;9.27;8.23;;;10.70;99.90;;;;;;5095493;28;20552;-71
2021/09/05 03:45:28;;;;;;;11.27;9.30;;;10.60;99.90;;;;;;5095905;28;20035;-71
2021/09/05 03:47:54;;;;;;;8.18;7.13;;;10.60;99.90;;;;;;5093146;28;20130;-71
2021/09/05 03:50:20;;;;;;;7.70;6.90;;;10.60;99.90;;;;;;5115430;27;20127;-71
2021/09/05 03:52:45;;;;;;;11.02;8.23;;;10.50;99.90;;;;;;5094661;28;20044;-71
2021/09/05 03:55:12;;;;;;;13.77;9.68;;;10.50;99.90;;;;;;5096404;28;20036;-71
2021/09/05 03:57:37;;;;;;;10.45;8.93;;;10.40;99.90;;;;;;5097077;28;20063;-71
2021/09/05 04:00:04;;;;;;;12.45;9.05;;;10.30;99.90;;;;;;5098333;28;20050;-71
2021/09/05 04:02:30;;;;;;;9.15;8.25;;;10.20;99.90;;;;;;5097555;28;20043;-71
2021/09/05 04:04:55;;;;;;;8.73;7.90;;;10.10;99.90;;;;;;5095087;28;20116;-71
2021/09/05 04:07:21;;;;;;;9.20;8.13;;;10.20;99.90;;;;;;5095567;28;20048;-71
2021/09/05 04:12:31;;;;;;;15.48;11.50;;;10.30;99.90;;;;;;5099547;28;20102;-71
2021/09/05 04:14:56;;;;;;;12.30;10.30;;;10.20;99.90;;;;;;5096533;28;20063;-71
2021/09/05 04:17:22;;;;;;;11.13;9.98;;;10.20;99.90;;;;;;5100115;28;20048;-71
2021/09/05 04:19:48;;;;;;;12.63;9.82;;;10.30;99.90;;;;;;5094672;27;20035;-71
2021/09/05 04:22:14;;;;;;;18.90;13.23;;;10.40;99.90;;;;;;5096510;28;20036;-71
2021/09/05 04:24:39;;;;;;;15.95;12.32;;;10.40;99.90;;;;;;5092826;28;20028;-71
2021/09/05 04:27:05;;;;;;;17.05;11.95;;;10.50;99.90;;;;;;5095474;28;20040;-71
2021/09/05 04:29:30;;;;;;;15.73;12.43;;;10.50;99.90;;;;;;5094552;28;20035;-71
2021/09/05 04:31:56;;;;;;;16.10;12.95;;;10.50;99.90;;;;;;5096370;28;20106;-71
2021/09/05 04:34:21;;;;;;;19.83;14.32;;;10.60;99.90;;;;;;5097451;28;20051;-71
2021/09/05 04:36:47;;;;;;;17.27;12.85;;;10.60;99.90;;;;;;5098419;28;21467;-71
2021/09/05 04:39:13;;;;;;;16.48;12.13;;;10.60;99.90;;;;;;5099859;28;20035;-71
2021/09/05 04:41:39;;;;;;;17.10;13.43;;;10.60;99.90;;;;;;5093199;28;20143;-72
2021/09/05 04:44:04;;;;;;;18.92;14.30;;;10.60;99.90;;;;;;5096787;28;20347;-71
2021/09/05 04:46:30;;;;;;;24.45;15.85;;;10.70;99.90;;;;;;5127902;27;20367;-71
2021/09/05 04:48:55;;;;;;;21.55;14.85;;;10.70;99.90;;;;;;5100135;28;20032;-71
2021/09/05 04:51:21;;;;;;;20.40;13.25;;;10.70;99.90;;;;;;5097490;28;20093;-71
2021/09/05 04:53:46;;;;;;;18.20;14.27;;;10.70;99.90;;;;;;5096353;28;20047;-71
2021/09/05 04:56:14;;;;;;;17.60;13.35;;;10.70;99.90;;;;;;5081977;28;20050;-71
2021/09/05 04:58:42;;;;;;;15.07;12.48;;;10.70;99.90;;;;;;5097843;28;20039;-71
2021/09/05 05:01:08;;;;;;;15.73;12.25;;;10.70;99.90;;;;;;5091744;28;20171;-71
2021/09/05 05:03:33;;;;;;;19.88;14.30;;;10.70;99.90;;;;;;5127579;27;20548;-71
2021/09/05 05:05:59;;;;;;;16.88;13.07;;;10.70;99.90;;;;;;5094283;28;20505;-71
2021/09/05 05:08:25;;;;;;;30.20;17.20;;;10.70;99.90;;;;;;5097618;28;20054;-71
2021/09/05 05:10:50;;;;;;;17.35;12.88;;;10.70;99.90;;;;;;5127709;27;20089;-71
2021/09/05 05:13:16;;;;;;;18.73;15.25;;;10.70;99.90;;;;;;5124241;27;20064;-71
2021/09/05 05:15:41;;;;;;;20.88;14.93;;;10.80;99.90;;;;;;5125676;27;20042;-72
2021/09/05 05:18:07;;;;;;;15.82;13.10;;;10.80;99.90;;;;;;5099401;28;20043;-71
2021/09/05 05:20:33;;;;;;;16.15;13.52;;;10.80;99.90;;;;;;5093999;28;20084;-71
2021/09/05 05:22:58;;;;;;;15.93;13.15;;;10.90;99.90;;;;;;5096711;28;20462;-71
2021/09/05 05:25:26;;;;;;;14.07;11.88;;;10.90;99.90;;;;;;5095876;27;20850;-71
2021/09/05 05:27:51;;;;;;;15.18;11.82;;;11.30;99.90;;;;;;5095556;28;20539;-71
2021/09/05 05:30:17;;;;;;;13.73;10.73;;;11.90;99.90;;;;;;5096575;28;20036;-72
2021/09/05 05:32:43;;;;;;;11.88;10.63;;;12.50;99.90;;;;;;5126972;27;20077;-71
2021/09/05 05:35:09;;;;;;;11.68;10.52;;;13.10;99.90;;;;;;5092608;28;20046;-71
2021/09/05 05:37:35;;;;;;;14.45;12.75;;;13.60;99.90;;;;;;5094348;28;20462;-71
2021/09/05 05:40:02;;;;;;;12.95;11.23;;;13.70;99.90;;;;;;5094196;28;20138;-72
2021/09/05 05:42:28;;;;;;;15.27;12.35;;;13.70;99.90;;;;;;5124827;27;20094;-71
2021/09/05 05:44:53;;;;;;;14.25;11.80;;;14.00;99.90;;;;;;5095844;28;20063;-71
2021/09/05 05:47:19;;;;;;;12.95;11.60;;;14.40;99.90;;;;;;5095205;28;20052;-71
2021/09/05 05:49:46;;;;;;;11.82;10.60;;;14.80;99.90;;;;;;5096104;28;20063;-71
2021/09/05 05:52:13;;;;;;;11.82;10.27;;;15.40;99.90;;;;;;5093476;28;20043;-71
2021/09/05 05:54:39;;;;;;;13.65;11.52;;;16.00;99.90;;;;;;5093634;28;20057;-71
2021/09/05 05:57:05;;;;;;;12.50;10.25;;;16.10;99.90;;;;;;5098233;28;20389;-71
2021/09/05 05:59:31;;;;;;;12.05;10.70;;;16.60;99.90;;;;;;5099924;28;20040;-71
2021/09/05 06:01:56;;;;;;;12.57;10.98;;;17.00;99.90;;;;;;5102881;27;20390;-71
2021/09/05 06:04:22;;;;;;;11.70;10.45;;;17.50;99.90;;;;;;5102629;28;20517;-71
2021/09/05 06:06:48;;;;;;;10.32;9.35;;;18.10;99.90;;;;;;5102018;27;20047;-71
2021/09/05 06:09:15;;;;;;;10.38;9.27;;;19.00;99.90;;;;;;5097626;28;20031;-71
2021/09/05 06:11:40;;;;;;;10.15;9.20;;;19.60;99.90;;;;;;5106078;28;20075;-71
2021/09/05 06:14:06;;;;;;;10.30;9.25;;;20.10;99.90;;;;;;5095603;28;20079;-71
2021/09/05 06:16:32;;;;;;;9.95;8.95;;;20.60;99.90;;;;;;5095331;28;20062;-71
2021/09/05 06:18:57;;;;;;;12.27;9.98;;;20.90;99.90;;;;;;5094194;28;20043;-71
2021/09/05 06:21:23;;;;;;;10.18;9.15;;;21.10;99.90;;;;;;5096506;28;20549;-71
2021/09/05 06:23:49;;;;;;;11.90;9.90;;;21.20;99.90;;;;;;5098380;28;20046;-71
2021/09/05 06:26:14;;;;;;;10.43;9.32;;;21.60;99.90;;;;;;5096340;28;20040;-71
2021/09/05 06:28:40;;;;;;;11.73;10.18;;;22.10;99.90;;;;;;5096500;28;20071;-71
2021/09/05 06:31:05;;;;;;;11.43;10.32;;;22.50;99.90;;;;;;5102110;28;20075;-70
2021/09/05 06:33:31;;;;;;;13.98;11.02;;;23.00;99.90;;;;;;5096785;28;20727;-71
2021/09/05 06:35:56;;;;;;;13.90;10.02;;;23.20;98.30;;;;;;5126754;27;20052;-71
2021/09/05 06:38:22;;;;;;;11.98;10.88;;;23.30;97.30;;;;;;5100450;28;20480;-71
2021/09/05 06:40:47;;;;;;;11.00;9.88;;;23.00;97.20;;;;;;5126390;27;20047;-70
2021/09/05 06:43:14;;;;;;;16.15;12.02;;;22.60;98.20;;;;;;5111250;27;20031;-71
2021/09/05 06:45:40;;;;;;;14.40;12.32;;;22.20;99.70;;;;;;5100584;28;20409;-71
2021/09/05 06:48:06;;;;;;;14.00;12.55;;;21.40;99.90;;;;;;5102576;28;20040;-70
2021/09/05 06:50:31;;;;;;;15.60;13.77;;;20.80;99.90;;;;;;5101827;28;20078;-71
2021/09/05 06:52:57;;;;;;;22.92;14.43;;;20.00;99.90;;;;;;5101348;28;20110;-71
2021/09/05 06:55:23;;;;;;;16.15;13.85;;;19.20;99.90;;;;;;5104709;28;20036;-71
2021/09/05 06:57:48;;;;;;;17.80;14.07;;;18.60;99.90;;;;;;5101934;28;20040;-70
2021/09/05 07:00:14;;;;;;;27.17;14.95;;;18.00;99.90;;;;;;5100335;28;20040;-71
2021/09/05 07:02:40;;;;;;;23.00;16.38;;;17.60;99.90;;;;;;5099530;28;20084;-71
2021/09/05 07:05:06;;;;;;;17.67;15.43;;;17.00;99.90;;;;;;5130327;27;20048;-70
2021/09/05 07:07:32;;;;;;;15.50;13.95;;;16.70;99.90;;;;;;5100673;28;20147;-71
2021/09/05 07:09:57;;;;;;;19.95;14.30;;;16.50;99.90;;;;;;5101977;27;20439;-70
2021/09/05 07:12:23;;;;;;;17.52;14.15;;;16.50;99.90;;;;;;5132097;27;20454;-71
2021/09/05 07:14:48;;;;;;;17.17;14.48;;;16.50;99.90;;;;;;5098105;28;20032;-70
2021/09/05 07:17:14;;;;;;;22.85;16.17;;;16.40;99.90;;;;;;5095486;28;20036;-70
2021/09/05 07:19:40;;;;;;;18.38;14.77;;;16.30;99.90;;;;;;5097619;28;20039;-71
2021/09/05 07:22:06;;;;;;;19.45;15.63;;;16.20;99.90;;;;;;5129559;27;22753;-71
2021/09/05 07:24:31;;;;;;;30.67;17.48;;;16.10;99.90;;;;;;5128851;27;20046;-70
2021/09/05 07:26:57;;;;;;;21.52;16.55;;;15.80;99.90;;;;;;5127956;27;20044;-70
2021/09/05 07:29:23;;;;;;;19.83;17.35;;;15.70;99.90;;;;;;5100547;27;20383;-71
2021/09/05 07:31:48;;;;;;;22.38;18.00;;;15.60;99.90;;;;;;5098670;28;20047;-70
2021/09/05 07:34:14;;;;;;;26.13;18.40;;;15.60;99.90;;;;;;5096534;27;20673;-70
2021/09/05 07:36:41;;;;;;;24.98;16.83;;;15.40;99.90;;;;;;5131192;27;20123;-70
2021/09/05 07:39:07;;;;;;;21.27;15.35;;;15.30;99.90;;;;;;5095914;28;20077;-71
2021/09/05 07:41:34;;;;;;;19.50;16.25;;;15.30;99.90;;;;;;5097921;28;20469;-71
2021/09/05 07:43:59;;;;;;;18.38;16.27;;;15.40;99.90;;;;;;5096891;28;20038;-71
2021/09/05 07:46:25;;;;;;;18.50;16.55;;;15.50;99.90;;;;;;5097246;28;20473;-71
2021/09/05 07:48:51;;;;;;;17.92;16.02;;;15.70;99.90;;;;;;5129817;27;20048;-70
2021/09/05 07:51:17;;;;;;;20.90;18.48;;;15.90;99.90;;;;;;5095835;28;20153;-71
2021/09/05 07:53:43;;;;;;;18.42;16.30;;;16.00;99.90;;;;;;5099381;27;20443;-71
2021/09/05 07:56:09;;;;;;;17.92;15.85;;;16.20;99.90;;;;;;5097124;28;20089;-71
2021/09/05 07:58:34;;;;;;;18.20;16.33;;;16.30;99.90;;;;;;5096348;28;20039;-71
2021/09/05 08:01:00;;;;;;;18.48;16.63;;;16.40;99.90;;;;;;5095074;28;20081;-70
2021/09/05 08:03:25;;;;;;;18.10;15.85;;;16.40;99.90;;;;;;5095480;28;20118;-70
2021/09/05 08:05:51;;;;;;;21.13;18.45;;;16.30;99.90;;;;;;5097436;27;20032;-70
2021/09/05 08:08:18;;;;;;;22.02;19.38;;;16.30;99.90;;;;;;5093075;28;20078;-71
2021/09/05 08:10:43;;;;;;;20.00;17.15;;;16.30;99.90;;;;;;5097242;28;20042;-71
2021/09/05 08:13:09;;;;;;;20.02;17.48;;;16.40;99.90;;;;;;5098768;27;20036;-74
2021/09/05 08:15:35;;;;;;;16.98;15.07;;;16.60;99.90;;;;;;5098319;28;20473;-74
2021/09/05 08:18:00;;;;;;;17.23;15.43;;;16.70;99.90;;;;;;5098964;28;20047;-74
2021/09/05 08:20:26;;;;;;;18.20;14.18;;;16.80;99.90;;;;;;5127696;27;20115;-72
2021/09/05 08:22:52;;;;;;;17.65;15.57;;;16.90;99.90;;;;;;5093778;28;20032;-72
2021/09/05 08:25:17;;;;;;;16.25;14.55;;;17.00;99.90;;;;;;5097258;27;20067;-72
2021/09/05 08:27:43;;;;;;;17.90;16.08;;;16.90;99.90;;;;;;5096102;27;21900;-72
2021/09/05 08:30:10;;;;;;;16.27;13.88;;;16.90;99.90;;;;;;5126821;27;20039;-75
2021/09/05 08:32:36;;;;;;;16.77;13.05;;;17.00;99.90;;;;;;5094332;27;20780;-73
2021/09/05 08:35:02;;;;;;;14.48;12.07;;;17.30;99.90;;;;;;5096799;27;20061;-74
2021/09/05 08:37:27;;;;;;;13.75;11.82;;;17.60;99.90;;;;;;5095377;28;20442;-74
2021/09/05 08:39:53;;;;;;;13.82;12.00;;;17.90;99.90;;;;;;5095867;28;20135;-75
2021/09/05 08:42:18;;;;;;;15.20;13.32;;;17.90;99.90;;;;;;5096161;28;20496;-76
2021/09/05 08:44:44;;;;;;;17.13;13.05;;;18.10;99.90;;;;;;5095878;28;20127;-81
2021/09/05 08:47:10;;;;;;;14.57;12.00;;;18.20;99.90;;;;;;5094181;28;20048;-80
2021/09/05 08:49:37;;;;;;;12.52;10.93;;;18.40;99.90;;;;;;5126566;27;20035;-82
2021/09/05 08:52:05;;;;;;;12.43;10.02;;;18.50;99.90;;;;;;5093681;28;20044;-73
2021/09/05 08:54:31;;;;;;;14.25;10.43;;;18.60;99.90;;;;;;5124129;27;20032;-73
2021/09/05 08:56:57;;;;;;;10.35;9.45;;;18.80;99.90;;;;;;5094382;28;20047;-72
2021/09/05 08:59:23;;;;;;;13.32;10.32;;;18.90;99.90;;;;;;5096814;28;20050;-73
2021/09/05 09:02:00;;;;;;;11.93;10.45;;;18.70;99.90;;;;;;5097087;28;20059;-72
2021/09/05 09:04:37;;;;;;;9.57;8.57;;;19.00;99.90;;;;;;5096132;28;20127;-73
2021/09/05 09:07:14;;;;;;;11.55;10.45;;;19.20;99.90;;;;;;5093894;28;20525;-73
2021/09/05 09:09:52;;;;;;;11.20;10.07;;;19.20;99.90;;;;;;5096728;28;20051;-73
2021/09/05 09:12:18;;;;;;;11.98;9.05;;;19.20;99.90;;;;;;5096062;28;20507;-73
2021/09/05 09:14:45;;;;;;;9.25;8.18;;;19.50;99.90;;;;;;5092972;28;20048;-73
2021/09/05 09:17:14;;;;;;;13.02;9.82;;;19.60;99.90;;;;;;5095828;28;20043;-72
2021/09/05 09:19:44;;;;;;;11.57;9.65;;;19.30;99.90;;;;;;5096138;28;20040;-72
2021/09/05 09:22:16;;;;;;;9.27;7.90;;;19.10;99.90;;;;;;5098760;28;20520;-73
2021/09/05 09:24:43;;;;;;;11.95;9.40;;;19.20;99.90;;;;;;5095724;28;20036;-78
2021/09/05 09:27:10;;;;;;;10.15;8.05;;;19.40;99.90;;;;;;5098628;28;20775;-75
2021/09/05 09:29:36;;;;;;;10.50;9.40;;;19.50;99.90;;;;;;5098067;28;20036;-74
2021/09/05 09:32:15;;;;;;;11.68;8.82;;;19.60;99.90;;;;;;5100542;28;20092;-74
2021/09/05 09:34:46;;;;;;;11.52;10.13;;;19.80;99.90;;;;;;5080981;27;20042;-73
2021/09/05 09:37:17;;;;;;;10.65;8.77;;;19.90;99.90;;;;;;5096982;28;20039;-73
2021/09/05 09:39:47;;;;;;;10.70;8.77;;;20.00;99.90;;;;;;5099057;28;20039;-73
2021/09/05 09:42:32;;;;;;;13.98;10.18;;;20.10;99.90;;;;;;5096423;28;20130;-72
2021/09/05 09:44:59;;;;;;;12.07;9.50;;;20.20;99.90;;;;;;5096886;28;20523;-73
2021/09/05 09:47:24;;;;;;;12.20;9.80;;;20.30;99.90;;;;;;5097337;28;20061;-74
2021/09/05 09:49:51;;;;;;;10.32;9.30;;;20.20;99.90;;;;;;5093170;27;20477;-71
2021/09/05 09:52:23;;;;;;;10.90;9.45;;;20.20;99.90;;;;;;5095366;28;20173;-73
2021/09/05 09:54:48;;;;;;;13.93;8.75;;;20.30;99.90;;;;;;5096554;28;20084;-72
2021/09/05 09:57:14;;;;;;;64.35;21.92;;;20.30;99.90;;;;;;5093627;28;20035;-76
2021/09/05 09:59:40;;;;;;;10.70;9.60;;;20.30;99.90;;;;;;5096285;28;20047;-76
2021/09/05 10:02:10;;;;;;;12.05;9.48;;;20.40;99.90;;;;;;5093530;28;20634;-76
2021/09/05 10:04:36;;;;;;;11.38;8.45;;;20.60;99.90;;;;;;5095108;28;20374;-77
2021/09/05 10:07:02;;;;;;;9.85;8.93;;;20.80;99.90;;;;;;5095929;28;20040;-78
2021/09/05 10:09:28;;;;;;;11.02;8.73;;;20.60;99.90;;;;;;5095407;28;20035;-80
2021/09/05 10:11:54;;;;;;;13.13;8.73;;;20.20;99.90;;;;;;5093686;28;20806;-78
2021/09/05 10:14:21;;;;;;;12.20;10.63;;;20.50;99.90;;;;;;5096174;28;20119;-80
2021/09/05 10:16:47;;;;;;;10.68;9.27;;;20.50;99.90;;;;;;5095581;28;20032;-79
2021/09/05 10:19:14;;;;;;;13.98;9.80;;;20.70;99.90;;;;;;5094925;28;20140;-76
2021/09/05 10:21:40;;;;;;;10.82;8.98;;;20.80;99.90;;;;;;5093037;28;20047;-76
2021/09/05 10:24:14;;;;;;;14.10;10.27;;;20.90;99.90;;;;;;5095322;28;20055;-76
2021/09/05 10:27:05;;;;;;;11.52;10.25;;;21.10;99.90;;;;;;5096954;28;20118;-77
2021/09/05 10:29:30;;;;;;;14.55;9.65;;;21.30;99.90;;;;;;5096346;28;20566;-76
2021/09/05 10:31:56;;;;;;;11.13;9.55;;;21.40;99.90;;;;;;5095899;28;20040;-77
2021/09/05 10:34:34;;;;;;;14.88;9.70;;;21.50;99.90;;;;;;5094947;28;20028;-77
2021/09/05 10:37:11;;;;;;;12.32;9.27;;;21.70;99.90;;;;;;5094743;28;20061;-77
2021/09/05 10:40:06;;;;;;;15.48;9.65;;;21.70;99.90;;;;;;5097056;28;20511;-77
2021/09/05 10:42:32;;;;;;;10.85;9.35;;;21.80;99.90;;;;;;5129113;27;20050;-77
2021/09/05 10:45:06;;;;;;;13.48;9.75;;;21.80;99.90;;;;;;5093450;28;20123;-77
2021/09/05 10:47:43;;;;;;;11.48;8.68;;;21.80;99.90;;;;;;5094793;28;20462;-74
2021/09/05 10:50:35;;;;;;;14.18;10.25;;;21.60;99.90;;;;;;5094306;28;20534;-74
2021/09/05 10:53:23;;;;;;;12.07;9.88;;;21.80;99.90;;;;;;5093164;28;20048;-74
2021/09/05 10:56:18;;;;;;;12.82;9.88;;;21.70;99.90;;;;;;5094295;28;20039;-73
2021/09/05 10:58:48;;;;;;;12.63;10.23;;;21.70;99.90;;;;;;5097071;28;20127;-73
2021/09/05 11:01:20;;;;;;;11.75;9.88;;;21.40;99.90;;;;;;5098246;28;20144;-68
2021/09/05 11:04:24;;;;;;;15.27;10.88;;;21.50;99.90;;;;;;5097842;28;20840;-68
2021/09/05 11:07:03;;;;;;;13.98;10.88;;;21.20;99.90;;;;;;5060899;28;20490;-68
2021/09/05 11:09:28;;;;;;;15.48;12.02;;;21.20;99.90;;;;;;5092114;28;20043;-68
2021/09/05 11:12:23;;;;;;;16.65;11.65;;;21.30;99.90;;;;;;5098944;28;20404;-68
2021/09/05 11:14:51;;;;;;;15.43;12.07;;;21.30;99.90;;;;;;5104574;28;20055;-68
2021/09/05 11:17:21;;;;;;;13.60;11.15;;;21.30;99.90;;;;;;5094853;28;20047;-68
2021/09/05 11:19:48;;;;;;;19.55;10.45;;;21.40;99.90;;;;;;5094552;28;20036;-68
2021/09/05 11:22:16;;;;;;;19.98;11.85;;;21.30;99.90;;;;;;5126479;27;20055;-68
2021/09/05 11:24:42;;;;;;;15.35;11.25;;;21.20;99.90;;;;;;5096448;28;20525;-68
2021/09/05 11:27:13;;;;;;;12.43;10.63;;;21.20;99.90;;;;;;5099051;28;20051;-68
2021/09/05 11:29:40;;;;;;;11.75;9.55;;;21.00;99.90;;;;;;5099733;28;20043;-68
2021/09/05 11:32:16;;;;;;;12.57;11.07;;;21.00;99.90;;;;;;5106123;28;20040;-68
2021/09/05 11:34:55;;;;;;;13.43;8.93;;;21.10;99.90;;;;;;5105854;28;20615;-68
2021/09/05 11:37:36;;;;;;;15.35;11.85;;;21.20;99.90;;;;;;5105136;28;20032;-68
2021/09/05 11:40:13;;;;;;;13.70;12.23;;;21.30;99.90;;;;;;5104654;28;20051;-68
2021/09/05 11:42:51;;;;;;;13.65;11.07;;;21.40;99.90;;;;;;5104673;28;20104;-68
2021/09/05 11:45:19;;;;;;;15.50;12.40;;;21.40;99.90;;;;;;5101407;27;20048;-68
2021/09/05 11:47:45;;;;;;;15.32;11.85;;;21.30;99.90;;;;;;5104888;28;20052;-68
2021/09/05 11:50:13;;;;;;;14.27;10.32;;;21.30;99.90;;;;;;5106426;28;20473;-67
2021/09/05 11:52:40;;;;;;;13.88;11.30;;;21.20;99.90;;;;;;5105625;28;20401;-67
2021/09/05 11:55:17;;;;;;;15.23;12.07;;;21.00;99.90;;;;;;5108034;28;20561;-67
2021/09/05 11:58:00;;;;;;;17.23;11.52;;;21.00;99.90;;;;;;5105222;28;20035;-67
2021/09/05 12:00:33;;;;;;;13.98;11.25;;;21.00;99.90;;;;;;5106599;27;20402;-67
2021/09/05 12:03:00;;;;;;;14.25;11.85;;;21.10;99.90;;;;;;5131413;27;20374;-67
2021/09/05 12:05:27;;;;;;;15.75;12.68;;;21.20;99.90;;;;;;5104306;28;20501;-67
2021/09/05 12:07:54;;;;;;;15.90;12.68;;;21.20;99.90;;;;;;5106183;28;20796;-67
2021/09/05 12:10:22;;;;;;;14.40;11.32;;;21.20;99.90;;;;;;5104669;28;20032;-67
2021/09/05 12:13:10;;;;;;;14.50;11.55;;;21.30;99.90;;;;;;5112857;27;20067;-67
2021/09/05 12:15:44;;;;;;;12.07;10.77;;;21.40;99.90;;;;;;5105278;28;20096;-67
2021/09/05 12:18:24;;;;;;;15.90;10.95;;;21.20;99.90;;;;;;5103725;27;20045;-67
2021/09/05 12:20:55;;;;;;;11.73;10.10;;;20.90;99.90;;;;;;5101179;28;20032;-67
2021/09/05 12:23:27;;;;;;;16.40;10.38;;;21.00;99.90;;;;;;5106660;27;20036;-67
2021/09/05 12:25:55;;;;;;;14.70;10.27;;;21.00;99.90;;;;;;5106432;27;20114;-67
2021/09/05 12:28:26;;;;;;;13.52;9.85;;;21.00;99.90;;;;;;5103954;28;20113;-67
2021/09/05 12:30:56;;;;;;;12.07;10.52;;;21.00;99.90;;;;;;5102801;28;20160;-67
2021/09/05 12:33:27;;;;;;;10.98;9.45;;;21.10;99.90;;;;;;5106107;28;20043;-67